createdAt,value
2019-05-17T00:03:09.273Z,14.30
2019-05-17T00:07:16.703Z,14.30
2019-05-17T00:11:22.523Z,14.10
2019-05-17T00:15:28.257Z,13.90
2019-05-17T00:19:33.962Z,14.10
2019-05-17T00:23:40.632Z,14.10
2019-05-17T00:27:47.431Z,14.00
2019-05-17T00:31:53.704Z,14.10
2019-05-17T00:35:59.397Z,14.10
2019-05-17T00:40:07.694Z,14.10
2019-05-17T00:44:13.371Z,14.00
2019-05-17T00:48:19.070Z,14.00
2019-05-17T00:52:27.164Z,14.10
2019-05-17T00:56:32.119Z,14.10
2019-05-17T01:00:38.848Z,13.90
2019-05-17T01:04:44.535Z,13.80
2019-05-17T01:09:01.030Z,14.00
2019-05-17T01:12:57.706Z,13.90
2019-05-17T01:17:03.495Z,13.80
2019-05-17T01:21:09.331Z,13.70
2019-05-17T01:25:17.216Z,13.60
2019-05-17T01:29:22.635Z,13.60
2019-05-17T01:33:28.492Z,13.60
2019-05-17T01:37:36.711Z,13.40
2019-05-17T01:41:41.556Z,13.30
2019-05-17T01:45:48.059Z,13.30
2019-05-17T01:49:53.921Z,13.20
2019-05-17T01:53:59.596Z,13.20
2019-05-17T01:58:07.412Z,13.10
2019-05-17T02:02:16.312Z,13.20
2019-05-17T02:06:21.727Z,13.20
2019-05-17T02:10:27.413Z,13.20
2019-05-17T02:14:33.082Z,13.10
2019-05-17T02:18:38.788Z,13.20
2019-05-17T02:22:47.082Z,13.20
2019-05-17T02:26:51.925Z,13.20
2019-05-17T02:30:57.945Z,13.30
2019-05-17T02:35:04.446Z,13.30
2019-05-17T02:39:13.132Z,13.30
2019-05-17T02:43:17.612Z,13.20
2019-05-17T02:47:23.292Z,13.00
2019-05-17T02:51:32.117Z,13.10
2019-05-17T02:55:36.423Z,13.30
2019-05-17T02:59:43.316Z,12.90
2019-05-17T03:03:49.145Z,12.90
2019-05-17T03:07:54.815Z,12.90
2019-05-17T03:12:03.290Z,13.00
2019-05-17T03:16:07.903Z,13.10
2019-05-17T03:20:15.314Z,13.00
2019-05-17T03:24:22.631Z,12.70
2019-05-17T03:28:28.538Z,12.50
2019-05-17T03:32:36.477Z,12.60
2019-05-17T03:36:46.966Z,12.60
2019-05-17T03:41:18.463Z,12.70
2019-05-17T03:45:02.631Z,12.70
2019-05-17T03:49:06.880Z,12.60
2019-05-17T03:53:13.284Z,12.60
2019-05-17T03:57:19.119Z,12.60
2019-05-17T04:01:24.894Z,12.60
2019-05-17T04:05:33.300Z,12.70
2019-05-17T04:09:38.050Z,12.90
2019-05-17T04:13:43.724Z,12.70
2019-05-17T04:17:52.690Z,12.60
2019-05-17T04:21:56.790Z,12.80
2019-05-17T04:26:04.339Z,13.00
2019-05-17T04:30:12.587Z,13.00
2019-05-17T04:34:18.050Z,12.80
2019-05-17T04:38:24.962Z,12.60
2019-05-17T04:42:33.162Z,12.50
2019-05-17T04:46:43.063Z,12.50
2019-05-17T04:50:48.788Z,12.70
2019-05-17T04:54:54.487Z,13.10
2019-05-17T04:59:03.246Z,13.30
2019-05-17T05:03:07.864Z,13.20
2019-05-17T05:07:13.933Z,13.20
2019-05-17T05:11:19.636Z,13.40
2019-05-17T05:15:44.472Z,13.60
2019-05-17T05:19:52.971Z,13.70
2019-05-17T05:23:57.864Z,13.70
2019-05-17T05:28:04.606Z,13.70
2019-05-17T05:32:11.805Z,13.80
2019-05-17T05:36:17.587Z,13.90
2019-05-17T05:40:23.257Z,14.00
2019-05-17T05:44:28.959Z,14.00
2019-05-17T05:48:34.637Z,14.00
2019-05-17T05:52:42.409Z,14.10
2019-05-17T05:56:47.828Z,14.30
2019-05-17T06:00:53.641Z,14.40
2019-05-17T06:05:01.751Z,14.60
2019-05-17T06:09:11.836Z,14.80
2019-05-17T06:13:16.961Z,15.00
2019-05-17T06:17:22.643Z,15.10
2019-05-17T06:21:29.020Z,15.20
2019-05-17T06:25:34.704Z,15.30
2019-05-17T06:29:41.506Z,15.50
2019-05-17T06:33:47.410Z,15.60
2019-05-17T06:37:53.612Z,15.80
2019-05-17T06:41:59.368Z,16.00
2019-05-17T06:46:05.179Z,16.10
2019-05-17T06:50:13.929Z,16.20
2019-05-17T06:54:18.818Z,16.30
2019-05-17T06:58:24.519Z,16.40
2019-05-17T07:02:30.816Z,16.50
2019-05-17T07:06:36.933Z,16.80
2019-05-17T07:10:42.703Z,17.10
2019-05-17T07:14:50.561Z,17.20
2019-05-17T07:18:55.795Z,17.60
2019-05-17T07:23:01.472Z,17.90
2019-05-17T07:27:07.225Z,18.20
2019-05-17T07:31:12.922Z,18.50
2019-05-17T07:35:19.800Z,18.80
2019-05-17T07:39:25.503Z,19.00
2019-05-17T07:43:31.278Z,19.20
2019-05-17T07:47:36.959Z,19.40
2019-05-17T07:51:42.644Z,19.60
2019-05-17T07:55:50.589Z,19.90
2019-05-17T07:59:55.818Z,20.10
2019-05-17T08:04:01.921Z,20.30
2019-05-17T08:08:09.655Z,20.60
2019-05-17T08:12:15.181Z,20.80
2019-05-17T08:16:20.903Z,21.10
2019-05-17T08:20:29.836Z,21.10
2019-05-17T08:24:35.109Z,21.40
2019-05-17T08:28:40.825Z,21.70
2019-05-17T08:32:46.607Z,21.80
2019-05-17T08:36:52.299Z,21.80
2019-05-17T08:41:00.526Z,21.90
2019-05-17T08:45:09.528Z,22.30
2019-05-17T08:49:14.855Z,22.50
2019-05-17T08:53:20.515Z,22.80
2019-05-17T08:57:26.513Z,23.20
2019-05-17T09:01:32.204Z,23.60
2019-05-17T09:05:38.043Z,23.50
2019-05-17T09:09:44.271Z,23.90
2019-05-17T09:13:57.907Z,24.30
2019-05-17T09:17:57.327Z,24.50
2019-05-17T09:22:04.069Z,24.40
2019-05-17T09:26:10.133Z,24.70
2019-05-17T09:30:16.435Z,25.20
2019-05-17T09:34:22.105Z,25.60
2019-05-17T09:38:29.556Z,25.80
2019-05-17T09:42:35.411Z,26.10
2019-05-17T09:46:41.088Z,26.60
2019-05-17T09:50:46.783Z,26.90
2019-05-17T09:54:52.443Z,27.00
2019-05-17T09:59:00.233Z,27.10
2019-05-17T10:03:05.593Z,27.10
2019-05-17T10:07:11.324Z,27.20
2019-05-17T10:11:20.092Z,27.90
2019-05-17T10:15:25.556Z,28.20
2019-05-17T10:19:31.756Z,28.10
2019-05-17T10:23:37.420Z,28.30
2019-05-17T10:27:43.108Z,29.00
2019-05-17T10:31:50.466Z,29.70
2019-05-17T10:35:56.279Z,30.30
2019-05-17T10:40:11.522Z,30.80
2019-05-17T10:44:19.825Z,31.20
2019-05-17T10:48:24.835Z,28.90
2019-05-17T10:52:30.510Z,29.90
2019-05-17T10:56:36.567Z,29.40
2019-05-17T11:00:42.397Z,28.70
2019-05-17T11:04:50.386Z,29.50
2019-05-17T11:08:55.517Z,30.80
2019-05-17T11:13:01.308Z,31.60
2019-05-17T11:17:07.015Z,31.90
2019-05-17T11:21:13.016Z,32.40
2019-05-17T11:25:19.156Z,32.90
2019-05-17T11:29:24.848Z,32.60
2019-05-17T11:33:30.515Z,32.50
2019-05-17T11:37:36.214Z,32.70
2019-05-17T11:41:41.895Z,32.80
2019-05-17T11:45:47.745Z,32.60
2019-05-17T11:49:53.489Z,33.10
2019-05-17T11:53:59.148Z,33.10
2019-05-17T11:58:05.495Z,33.20
2019-05-17T12:02:11.192Z,33.30
2019-05-17T12:06:16.941Z,33.30
2019-05-17T12:10:22.821Z,33.50
2019-05-17T12:14:29.628Z,33.70
2019-05-17T12:18:35.368Z,33.70
2019-05-17T12:22:41.839Z,32.90
2019-05-17T12:26:47.683Z,31.60
2019-05-17T12:30:53.410Z,32.20
2019-05-17T12:34:59.082Z,33.30
2019-05-17T12:39:06.777Z,33.00
2019-05-17T12:43:12.517Z,32.00
2019-05-17T12:47:18.246Z,30.80
2019-05-17T12:51:23.937Z,29.60
2019-05-17T12:55:29.672Z,28.10
2019-05-17T12:59:36.331Z,28.70
2019-05-17T13:03:42.006Z,29.10
2019-05-17T13:07:47.977Z,29.20
2019-05-17T13:11:53.647Z,27.70
2019-05-17T13:15:59.419Z,28.70
2019-05-17T13:20:10.268Z,29.90
2019-05-17T13:24:16.027Z,30.60
2019-05-17T13:28:21.702Z,30.50
2019-05-17T13:32:27.453Z,31.20
2019-05-17T13:36:33.204Z,31.00
2019-05-17T13:40:40.062Z,31.00
2019-05-17T13:44:46.065Z,30.80
2019-05-17T13:48:51.754Z,29.70
2019-05-17T13:52:57.469Z,29.00
2019-05-17T13:57:03.196Z,28.20
2019-05-17T14:01:08.928Z,27.10
2019-05-17T14:05:15.690Z,26.70
2019-05-17T14:09:21.368Z,27.00
2019-05-17T14:13:27.060Z,26.30
2019-05-17T14:17:32.742Z,26.30
2019-05-17T14:21:38.443Z,26.20
2019-05-17T14:25:44.102Z,25.90
2019-05-17T14:29:49.806Z,26.10
2019-05-17T14:33:55.507Z,26.30
2019-05-17T14:38:01.182Z,26.60
2019-05-17T14:46:04.617Z,26.50
2019-05-17T14:50:10.904Z,26.40
2019-05-17T14:54:16.591Z,25.80
2019-05-17T14:58:22.287Z,24.30
2019-05-17T15:02:28.062Z,23.50
2019-05-17T15:06:34.074Z,23.70
2019-05-17T15:10:39.813Z,24.10
2019-05-17T15:14:45.611Z,23.70
2019-05-17T15:18:51.328Z,23.40
2019-05-17T15:22:57.200Z,22.90
2019-05-17T15:27:05.783Z,21.90
2019-05-17T15:31:10.264Z,21.20
2019-05-17T15:35:15.990Z,21.10
2019-05-17T15:39:21.748Z,20.70
2019-05-17T15:43:27.418Z,20.50
2019-05-17T15:47:33.122Z,20.30
2019-05-17T15:51:38.799Z,20.20
2019-05-17T15:55:44.464Z,20.30
2019-05-17T15:59:50.168Z,20.20
2019-05-17T16:03:55.913Z,19.90
2019-05-17T16:08:01.575Z,20.10
2019-05-17T16:12:07.328Z,20.20
2019-05-17T16:16:13.004Z,20.20
2019-05-17T16:20:19.051Z,20.00
2019-05-17T16:24:24.781Z,20.40
2019-05-17T16:28:30.516Z,20.70
2019-05-17T16:32:36.161Z,21.10
2019-05-17T16:36:41.819Z,21.30
2019-05-17T16:40:47.519Z,21.30
2019-05-17T16:44:53.273Z,21.30
2019-05-17T16:48:58.941Z,21.00
2019-05-17T16:53:06.546Z,20.90
2019-05-17T16:57:12.435Z,20.70
2019-05-17T17:01:18.267Z,20.50
2019-05-17T17:05:24.138Z,20.60
2019-05-17T17:09:29.882Z,20.40
2019-05-17T17:13:35.644Z,20.60
2019-05-17T17:17:41.318Z,20.80
2019-05-17T17:21:47.029Z,20.80
2019-05-17T17:25:52.686Z,20.80
2019-05-17T17:29:58.353Z,20.80
2019-05-17T17:34:04.235Z,20.80
2019-05-17T17:38:10.547Z,20.70
2019-05-17T17:42:16.219Z,20.70
2019-05-17T17:46:22.370Z,20.70
2019-05-17T17:50:28.071Z,20.80
2019-05-17T17:54:33.845Z,20.90
2019-05-17T17:58:39.514Z,20.80
2019-05-17T18:02:45.316Z,20.70
2019-05-17T18:06:51.014Z,20.60
2019-05-17T18:10:56.715Z,20.50
2019-05-17T18:15:05.930Z,20.50
2019-05-17T18:19:10.386Z,20.40
2019-05-17T18:23:20.932Z,20.20
2019-05-17T18:27:23.787Z,20.00
2019-05-17T18:31:29.584Z,19.90
2019-05-17T18:35:36.338Z,20.10
2019-05-17T18:39:42.031Z,20.20
2019-05-17T18:43:47.729Z,20.30
2019-05-17T18:47:53.559Z,20.30
2019-05-17T18:51:59.418Z,20.20
2019-05-17T18:56:05.108Z,20.10
2019-05-17T19:00:11.555Z,20.10
2019-05-17T19:04:17.246Z,20.10
2019-05-17T19:08:22.953Z,20.00
2019-05-17T19:12:28.638Z,19.90
2019-05-17T19:16:34.346Z,19.80
2019-05-17T19:20:40.195Z,19.80
2019-05-17T19:24:45.894Z,19.80
2019-05-17T19:28:51.573Z,19.60
2019-05-17T19:32:58.250Z,19.50
2019-05-17T19:37:04.010Z,19.60
2019-05-17T19:41:10.692Z,19.50
2019-05-17T19:45:16.831Z,19.30
2019-05-17T19:49:22.569Z,19.40
2019-05-17T19:53:28.254Z,19.60
2019-05-17T19:57:33.986Z,19.40
2019-05-17T20:01:39.726Z,18.80
2019-05-17T20:05:45.424Z,18.40
2019-05-17T20:09:51.087Z,18.50
2019-05-17T20:13:56.770Z,18.70
2019-05-17T20:18:03.620Z,19.00
2019-05-17T20:22:10.076Z,19.10
2019-05-17T20:26:15.797Z,19.10
2019-05-17T20:30:21.805Z,19.00
2019-05-17T20:34:27.473Z,19.10
2019-05-17T20:38:33.303Z,19.10
2019-05-17T20:42:38.973Z,19.10
2019-05-17T20:46:44.651Z,19.10
2019-05-17T20:50:50.370Z,19.10
2019-05-17T20:54:56.033Z,19.10
2019-05-17T20:59:01.717Z,18.80
2019-05-17T21:03:07.395Z,18.90
2019-05-17T21:07:13.090Z,19.10
2019-05-17T21:11:18.819Z,19.10
2019-05-17T21:15:24.536Z,18.90
2019-05-17T21:19:30.198Z,18.80
2019-05-17T21:23:35.895Z,18.70
2019-05-17T21:27:41.923Z,18.20
2019-05-17T21:31:47.580Z,18.20
2019-05-17T21:35:53.402Z,18.40
2019-05-17T21:40:00.060Z,18.60
2019-05-17T21:44:05.944Z,18.60
2019-05-17T21:48:11.638Z,18.50
2019-05-17T21:52:17.309Z,18.30
2019-05-17T21:56:23.034Z,18.30
2019-05-17T22:00:54.305Z,18.40
2019-05-17T22:05:00.056Z,18.40
2019-05-17T22:09:08.054Z,18.40
2019-05-17T22:13:13.732Z,18.40
2019-05-17T22:17:19.409Z,18.50
2019-05-17T22:21:25.118Z,18.50
2019-05-17T22:25:30.822Z,18.30
2019-05-17T22:29:36.513Z,18.30
2019-05-17T22:33:42.228Z,18.30
2019-05-17T22:37:47.982Z,18.40
2019-05-17T22:41:53.658Z,18.40
2019-05-17T22:45:59.383Z,18.40
2019-05-17T22:50:06.382Z,18.20
2019-05-17T22:54:12.049Z,18.10
2019-05-17T22:58:17.740Z,18.00
2019-05-17T23:02:23.442Z,17.90
2019-05-17T23:06:29.109Z,17.90
2019-05-17T23:10:35.235Z,17.90
2019-05-17T23:14:40.976Z,17.80
2019-05-17T23:19:05.824Z,17.70
2019-05-17T23:23:11.531Z,18.00
2019-05-17T23:27:17.208Z,18.00
2019-05-17T23:31:23.086Z,17.80
2019-05-17T23:35:28.764Z,17.80
2019-05-17T23:39:34.518Z,17.70
2019-05-17T23:43:40.219Z,17.70
2019-05-17T23:47:45.900Z,17.90
2019-05-17T23:51:51.614Z,18.10
2019-05-17T23:55:57.284Z,18.00
